createdAt,value
2019-02-17T00:00:10.451Z,75.83
2019-02-17T00:02:39.237Z,76.79
2019-02-17T00:05:06.102Z,75.26
2019-02-17T00:07:33.032Z,75.09
2019-02-17T00:10:00.051Z,75.54
2019-02-17T00:12:27.175Z,75.40
2019-02-17T00:14:55.045Z,75.30
2019-02-17T00:17:22.159Z,74.98
2019-02-17T00:19:49.031Z,74.77
2019-02-17T00:22:15.908Z,74.65
2019-02-17T00:24:42.778Z,76.73
2019-02-17T00:27:09.657Z,78.56
2019-02-17T00:29:36.529Z,77.58
2019-02-17T00:32:03.613Z,77.41
2019-02-17T00:34:30.580Z,77.92
2019-02-17T00:36:57.763Z,77.61
2019-02-17T00:39:24.741Z,77.31
2019-02-17T00:41:51.641Z,76.46
2019-02-17T00:44:18.565Z,76.83
2019-02-17T00:46:45.650Z,77.86
2019-02-17T00:49:12.831Z,77.88
2019-02-17T00:51:40.211Z,78.13
2019-02-17T00:54:07.392Z,78.09
2019-02-17T00:56:34.354Z,78.13
2019-02-17T00:59:09.749Z,76.65
2019-02-17T01:01:30.389Z,75.36
2019-02-17T01:03:57.278Z,75.89
2019-02-17T01:06:24.442Z,74.79
2019-02-17T01:08:51.385Z,75.46
2019-02-17T01:11:18.434Z,77.25
2019-02-17T01:13:45.468Z,77.49
2019-02-17T01:16:12.443Z,78.25
2019-02-17T01:18:39.334Z,78.90
2019-02-17T01:21:06.374Z,78.83
2019-02-17T01:23:33.363Z,78.46
2019-02-17T01:26:00.345Z,78.17
2019-02-17T01:28:27.225Z,77.16
2019-02-17T01:30:54.146Z,76.39
2019-02-17T01:33:22.292Z,76.18
2019-02-17T01:35:51.105Z,78.02
2019-02-17T01:38:18.166Z,78.90
2019-02-17T01:40:45.162Z,77.97
2019-02-17T01:43:12.074Z,77.56
2019-02-17T01:45:39.151Z,77.03
2019-02-17T01:48:06.050Z,76.65
2019-02-17T01:50:33.007Z,75.88
2019-02-17T01:52:59.989Z,76.46
2019-02-17T01:55:26.874Z,75.68
2019-02-17T01:57:56.028Z,76.15
2019-02-17T02:00:23.033Z,77.01
2019-02-17T02:02:50.019Z,76.99
2019-02-17T02:05:17.076Z,76.21
2019-02-17T02:07:44.262Z,75.68
2019-02-17T02:10:12.433Z,75.09
2019-02-17T02:12:39.839Z,75.13
2019-02-17T02:15:10.056Z,74.66
2019-02-17T02:17:37.073Z,75.57
2019-02-17T02:20:09.222Z,74.89
2019-02-17T02:22:36.959Z,75.10
2019-02-17T02:25:06.629Z,75.55
2019-02-17T02:27:33.570Z,75.64
2019-02-17T02:30:00.644Z,74.92
2019-02-17T02:32:27.544Z,74.50
2019-02-17T02:34:55.006Z,74.29
2019-02-17T02:37:21.980Z,77.66
2019-02-17T02:39:48.946Z,75.96
2019-02-17T02:42:16.987Z,74.69
2019-02-17T02:44:44.048Z,74.45
2019-02-17T02:47:10.916Z,74.29
2019-02-17T02:49:37.779Z,74.83
2019-02-17T02:52:04.785Z,74.20
2019-02-17T02:54:31.687Z,74.53
2019-02-17T02:56:58.687Z,74.59
2019-02-17T02:59:25.681Z,74.95
2019-02-17T03:01:52.811Z,75.35
2019-02-17T03:04:19.971Z,74.28
2019-02-17T03:06:48.943Z,74.00
2019-02-17T03:09:16.015Z,73.86
2019-02-17T03:11:43.116Z,74.02
2019-02-17T03:14:10.040Z,73.51
2019-02-17T03:16:37.014Z,73.74
2019-02-17T03:19:06.685Z,74.21
2019-02-17T03:21:33.562Z,74.94
2019-02-17T03:24:00.577Z,74.34
2019-02-17T03:26:27.472Z,73.48
2019-02-17T03:28:54.635Z,73.71
2019-02-17T03:31:21.682Z,73.59
2019-02-17T03:33:48.744Z,73.57
2019-02-17T03:36:15.636Z,73.83
2019-02-17T03:38:42.651Z,73.58
2019-02-17T03:41:09.546Z,73.18
2019-02-17T03:43:36.498Z,73.42
2019-02-17T03:46:06.957Z,74.03
2019-02-17T03:48:33.965Z,73.76
2019-02-17T03:51:01.219Z,73.86
2019-02-17T03:53:29.418Z,73.90
2019-02-17T03:55:56.392Z,73.50
2019-02-17T03:58:23.365Z,73.03
2019-02-17T04:00:50.685Z,73.95
2019-02-17T04:03:17.551Z,73.17
2019-02-17T04:05:44.727Z,74.08
2019-02-17T04:08:11.936Z,73.66
2019-02-17T04:10:39.120Z,73.32
2019-02-17T04:13:06.347Z,74.60
2019-02-17T04:15:33.347Z,73.05
2019-02-17T04:18:00.304Z,73.35
2019-02-17T04:21:24.586Z,73.24
2019-02-17T04:23:51.430Z,73.30
2019-02-17T04:26:18.415Z,73.99
2019-02-17T04:28:45.422Z,73.57
2019-02-17T04:31:12.345Z,74.44
2019-02-17T04:33:39.431Z,73.54
2019-02-17T04:36:06.345Z,73.14
2019-02-17T04:38:33.325Z,73.21
2019-02-17T04:41:00.300Z,73.63
2019-02-17T04:43:27.330Z,73.05
2019-02-17T04:45:54.744Z,73.09
2019-02-17T04:48:21.666Z,73.39
2019-02-17T04:50:48.649Z,73.17
2019-02-17T04:53:15.528Z,73.93
2019-02-17T04:55:42.547Z,74.12
2019-02-17T04:58:09.390Z,74.24
2019-02-17T05:00:40.139Z,74.04
2019-02-17T05:03:05.370Z,74.39
2019-02-17T05:05:32.374Z,73.77
2019-02-17T05:07:59.233Z,73.64
2019-02-17T05:10:26.161Z,73.34
2019-02-17T05:12:53.169Z,73.86
2019-02-17T05:15:20.005Z,74.00
2019-02-17T05:17:47.352Z,74.02
2019-02-17T05:20:14.775Z,74.80
2019-02-17T05:22:41.628Z,74.42
2019-02-17T05:25:08.634Z,74.17
2019-02-17T05:27:35.676Z,74.37
2019-02-17T05:30:07.345Z,73.92
2019-02-17T05:32:34.226Z,73.78
2019-02-17T05:35:01.229Z,73.65
2019-02-17T05:37:28.190Z,73.57
2019-02-17T05:39:55.180Z,73.57
2019-02-17T05:42:22.260Z,73.55
2019-02-17T05:44:49.123Z,73.73
2019-02-17T05:47:16.191Z,73.82
2019-02-17T05:49:43.445Z,73.68
2019-02-17T05:52:10.520Z,74.22
2019-02-17T05:54:37.439Z,73.93
2019-02-17T05:57:04.624Z,74.63
2019-02-17T05:59:31.735Z,74.71
2019-02-17T06:01:58.704Z,74.42
2019-02-17T06:04:25.641Z,76.16
2019-02-17T06:06:52.675Z,74.42
2019-02-17T06:09:20.759Z,74.15
2019-02-17T06:11:49.649Z,74.30
2019-02-17T06:14:16.977Z,74.40
2019-02-17T06:16:43.833Z,74.40
2019-02-17T06:19:10.824Z,74.21
2019-02-17T06:21:37.678Z,73.97
2019-02-17T06:24:04.683Z,73.37
2019-02-17T06:26:31.720Z,73.84
2019-02-17T06:28:58.692Z,74.25
2019-02-17T06:31:25.766Z,73.41
2019-02-17T06:33:52.768Z,74.14
2019-02-17T06:36:19.764Z,73.84
2019-02-17T06:38:46.901Z,75.83
2019-02-17T06:41:15.860Z,76.55
2019-02-17T06:43:42.814Z,75.29
2019-02-17T06:46:12.526Z,74.77
2019-02-17T06:48:39.395Z,75.45
2019-02-17T06:51:06.363Z,75.79
2019-02-17T06:53:33.414Z,76.28
2019-02-17T06:56:02.595Z,76.64
2019-02-17T06:58:29.572Z,76.59
2019-02-17T07:00:56.749Z,75.30
2019-02-17T07:03:23.778Z,74.92
2019-02-17T07:05:52.656Z,74.92
2019-02-17T07:08:19.774Z,74.74
2019-02-17T07:10:46.909Z,74.59
2019-02-17T07:13:13.821Z,74.86
2019-02-17T07:15:40.877Z,75.18
2019-02-17T07:18:08.536Z,75.27
2019-02-17T07:20:35.512Z,74.83
2019-02-17T07:23:02.925Z,76.34
2019-02-17T07:25:30.586Z,77.03
2019-02-17T07:27:58.123Z,76.24
2019-02-17T07:30:25.297Z,75.55
2019-02-17T07:32:52.191Z,75.46
2019-02-17T07:35:19.165Z,75.28
2019-02-17T07:37:46.260Z,74.53
2019-02-17T07:40:13.238Z,74.94
2019-02-17T07:42:40.214Z,74.46
2019-02-17T07:45:11.694Z,75.13
2019-02-17T07:47:38.606Z,73.87
2019-02-17T07:50:09.020Z,73.28
2019-02-17T07:52:36.042Z,73.39
2019-02-17T07:55:07.952Z,72.95
2019-02-17T07:57:38.309Z,73.57
2019-02-17T08:00:11.043Z,72.66
2019-02-17T08:02:38.295Z,73.41
2019-02-17T08:05:07.312Z,72.96
2019-02-17T08:07:34.174Z,71.97
2019-02-17T08:10:01.991Z,71.97
2019-02-17T08:12:28.958Z,71.17
2019-02-17T08:14:56.094Z,70.76
2019-02-17T08:17:23.094Z,70.03
2019-02-17T08:19:50.098Z,69.23
2019-02-17T08:22:18.877Z,68.73
2019-02-17T08:24:47.123Z,68.19
2019-02-17T08:27:13.983Z,68.22
2019-02-17T08:29:40.944Z,68.21
2019-02-17T08:32:08.193Z,67.29
2019-02-17T08:34:35.083Z,67.21
2019-02-17T08:37:02.247Z,67.07
2019-02-17T08:39:29.243Z,66.68
2019-02-17T08:41:56.140Z,66.54
2019-02-17T08:44:23.337Z,66.04
2019-02-17T08:46:50.228Z,65.78
2019-02-17T08:49:17.114Z,65.58
2019-02-17T08:51:43.995Z,65.30
2019-02-17T08:54:10.979Z,64.29
2019-02-17T08:56:37.848Z,64.87
2019-02-17T08:59:05.176Z,63.93
2019-02-17T09:01:32.308Z,63.96
2019-02-17T09:03:59.289Z,63.93
2019-02-17T09:06:26.966Z,64.70
2019-02-17T09:08:53.859Z,65.22
2019-02-17T09:11:20.957Z,64.98
2019-02-17T09:13:48.048Z,64.73
2019-02-17T09:16:14.797Z,64.43
2019-02-17T09:18:41.542Z,64.08
2019-02-17T09:21:08.131Z,64.03
2019-02-17T09:24:31.255Z,63.31
2019-02-17T09:26:57.837Z,63.00
2019-02-17T09:29:24.445Z,62.75
2019-02-17T09:31:51.017Z,63.01
2019-02-17T09:34:17.639Z,62.78
2019-02-17T09:36:44.238Z,63.00
2019-02-17T09:39:10.947Z,62.55
2019-02-17T09:41:37.532Z,63.37
2019-02-17T09:44:04.323Z,63.35
2019-02-17T09:46:31.135Z,63.63
2019-02-17T09:48:57.870Z,63.84
2019-02-17T09:51:25.581Z,63.62
2019-02-17T09:53:52.176Z,64.10
2019-02-17T09:56:18.985Z,63.98
2019-02-17T09:58:45.635Z,64.16
2019-02-17T10:01:13.728Z,64.18
2019-02-17T10:03:40.542Z,64.31
2019-02-17T10:06:07.146Z,63.89
2019-02-17T10:08:33.755Z,64.31
2019-02-17T10:11:00.401Z,64.62
2019-02-17T10:13:27.096Z,64.31
2019-02-17T10:15:53.740Z,64.93
2019-02-17T10:18:20.348Z,64.69
2019-02-17T10:20:47.263Z,64.10
2019-02-17T10:23:13.858Z,64.28
2019-02-17T10:25:40.433Z,64.04
2019-02-17T10:28:07.074Z,64.10
2019-02-17T10:30:33.754Z,64.58
2019-02-17T10:33:00.410Z,63.93
2019-02-17T10:35:27.016Z,64.17
2019-02-17T10:37:53.581Z,63.87
2019-02-17T10:40:20.197Z,63.77
2019-02-17T10:42:46.913Z,63.82
2019-02-17T10:45:13.978Z,63.19
2019-02-17T10:47:40.597Z,63.78
2019-02-17T10:50:11.629Z,63.81
2019-02-17T10:52:38.575Z,63.32
2019-02-17T10:55:09.340Z,63.57
2019-02-17T10:57:37.157Z,63.37
2019-02-17T11:00:11.510Z,63.62
2019-02-17T11:02:46.743Z,63.23
2019-02-17T11:05:09.543Z,63.56
2019-02-17T11:07:36.439Z,63.34
2019-02-17T11:10:44.125Z,63.33
2019-02-17T11:13:10.729Z,63.38
2019-02-17T11:15:39.389Z,63.51
2019-02-17T11:18:09.201Z,62.84
2019-02-17T11:20:35.900Z,62.55
2019-02-17T11:23:02.807Z,62.73
2019-02-17T11:25:29.558Z,62.56
2019-02-17T11:27:56.170Z,62.39
2019-02-17T11:30:22.885Z,63.31
2019-02-17T11:32:57.564Z,63.01
2019-02-17T11:35:19.563Z,63.36
2019-02-17T11:37:46.270Z,62.65
2019-02-17T11:40:13.219Z,62.84
2019-02-17T11:42:40.434Z,62.62
2019-02-17T11:45:12.655Z,62.63
2019-02-17T11:47:39.298Z,62.78
2019-02-17T11:50:07.718Z,62.51
2019-02-17T11:52:35.630Z,62.68
2019-02-17T11:55:07.227Z,62.51
2019-02-17T11:57:33.791Z,62.69
2019-02-17T12:00:00.369Z,63.14
2019-02-17T12:02:27.264Z,62.95
2019-02-17T12:04:53.931Z,62.71
2019-02-17T12:07:20.818Z,62.83
2019-02-17T12:09:47.576Z,62.68
2019-02-17T12:12:17.600Z,62.96
2019-02-17T12:14:45.662Z,62.90
2019-02-17T12:17:13.343Z,62.35
2019-02-17T12:19:39.953Z,62.93
2019-02-17T12:22:08.634Z,62.46
2019-02-17T12:24:37.326Z,62.64
2019-02-17T12:27:05.963Z,62.97
2019-02-17T12:30:32.929Z,63.03
2019-02-17T12:32:59.955Z,62.62
2019-02-17T12:35:27.077Z,61.94
2019-02-17T12:37:53.877Z,62.14
2019-02-17T12:40:20.534Z,62.26
2019-02-17T12:42:47.534Z,62.92
2019-02-17T12:45:17.466Z,62.75
2019-02-17T12:47:42.934Z,63.09
2019-02-17T12:50:10.963Z,62.54
2019-02-17T12:52:47.194Z,62.73
2019-02-17T12:55:09.383Z,62.35
2019-02-17T12:57:35.986Z,62.90
2019-02-17T13:00:08.667Z,63.10
2019-02-17T13:02:35.405Z,62.66
2019-02-17T13:05:08.020Z,63.50
2019-02-17T13:07:34.715Z,63.17
2019-02-17T13:10:01.481Z,62.98
2019-02-17T13:12:28.098Z,63.19
2019-02-17T13:15:51.306Z,63.84
2019-02-17T13:18:21.191Z,63.55
2019-02-17T13:20:49.233Z,63.54
2019-02-17T13:23:15.836Z,63.01
2019-02-17T13:25:42.457Z,63.22
2019-02-17T13:28:09.121Z,63.19
2019-02-17T13:30:35.802Z,63.60
2019-02-17T13:33:02.372Z,62.96
2019-02-17T13:35:28.976Z,63.25
2019-02-17T13:37:55.667Z,62.94
2019-02-17T13:40:22.283Z,63.01
2019-02-17T13:42:49.045Z,63.42
2019-02-17T13:45:16.340Z,63.24
2019-02-17T13:47:42.990Z,63.64
2019-02-17T13:50:12.770Z,63.49
2019-02-17T13:52:39.428Z,62.91
2019-02-17T13:55:07.742Z,63.07
2019-02-17T13:57:34.499Z,63.35
2019-02-17T14:00:01.994Z,63.24
2019-02-17T14:02:30.739Z,62.88
2019-02-17T14:04:57.614Z,62.71
2019-02-17T14:07:24.726Z,62.85
2019-02-17T14:09:51.523Z,62.48
2019-02-17T14:12:18.427Z,61.88
2019-02-17T14:14:45.080Z,61.54
2019-02-17T14:17:11.722Z,61.23
2019-02-17T14:19:38.550Z,60.62
2019-02-17T14:22:05.337Z,60.35
2019-02-17T14:24:31.980Z,60.37
2019-02-17T14:26:58.588Z,60.31
2019-02-17T14:29:25.356Z,60.11
2019-02-17T14:31:52.579Z,61.10
2019-02-17T14:34:20.279Z,60.14
2019-02-17T14:36:46.975Z,60.19
2019-02-17T14:39:13.575Z,60.40
2019-02-17T14:41:40.162Z,60.23
2019-02-17T14:44:06.829Z,60.14
2019-02-17T14:46:33.564Z,59.90
2019-02-17T14:49:02.420Z,59.58
2019-02-17T14:51:28.779Z,59.44
2019-02-17T14:53:55.386Z,59.45
2019-02-17T14:56:22.166Z,59.45
2019-02-17T14:58:49.002Z,59.19
2019-02-17T15:01:15.689Z,59.25
2019-02-17T15:03:42.264Z,59.37
2019-02-17T15:06:09.040Z,59.50
2019-02-17T15:08:35.608Z,59.01
2019-02-17T15:11:02.546Z,58.72
2019-02-17T15:13:30.337Z,58.87
2019-02-17T15:15:57.001Z,58.35
2019-02-17T15:18:23.576Z,59.08
2019-02-17T15:20:50.145Z,58.66
2019-02-17T15:23:16.789Z,59.10
2019-02-17T15:25:43.373Z,58.63
2019-02-17T15:28:10.040Z,58.65
2019-02-17T15:30:36.591Z,58.68
2019-02-17T15:33:04.397Z,58.55
2019-02-17T15:35:31.453Z,58.71
2019-02-17T15:37:58.182Z,58.87
2019-02-17T15:40:24.726Z,59.91
2019-02-17T15:42:51.559Z,60.15
2019-02-17T15:45:18.274Z,60.49
2019-02-17T15:47:44.864Z,60.89
2019-02-17T15:50:13.497Z,60.65
2019-02-17T15:52:40.166Z,60.85
2019-02-17T15:55:09.974Z,60.87
2019-02-17T15:57:36.769Z,61.23
2019-02-17T16:00:09.152Z,61.27
2019-02-17T16:02:35.720Z,61.78
2019-02-17T16:05:05.343Z,62.05
2019-02-17T16:07:32.143Z,61.53
2019-02-17T16:09:58.720Z,61.78
2019-02-17T16:12:25.427Z,62.03
2019-02-17T16:14:52.077Z,62.09
2019-02-17T16:17:18.698Z,62.72
2019-02-17T16:19:47.870Z,63.35
2019-02-17T16:22:14.823Z,62.70
2019-02-17T16:24:41.581Z,62.52
2019-02-17T16:27:08.330Z,62.74
2019-02-17T16:29:35.059Z,62.15
2019-02-17T16:32:01.879Z,61.61
2019-02-17T16:34:38.003Z,61.65
2019-02-17T16:37:00.013Z,61.75
2019-02-17T16:39:26.725Z,61.24
2019-02-17T16:41:53.398Z,61.42
2019-02-17T16:44:20.134Z,61.63
2019-02-17T16:46:46.852Z,61.46
2019-02-17T16:49:13.424Z,61.28
2019-02-17T16:51:40.041Z,61.55
2019-02-17T16:54:06.617Z,60.83
2019-02-17T16:56:33.192Z,60.60
2019-02-17T16:58:59.799Z,60.62
2019-02-17T17:01:26.731Z,60.59
2019-02-17T17:03:53.316Z,60.45
2019-02-17T17:06:20.024Z,59.95
2019-02-17T17:08:46.856Z,60.76
2019-02-17T17:11:13.446Z,60.00
2019-02-17T17:13:40.117Z,60.36
2019-02-17T17:16:06.839Z,60.09
2019-02-17T17:18:33.441Z,60.23
2019-02-17T17:21:01.075Z,60.29
2019-02-17T17:23:28.874Z,60.84
2019-02-17T17:25:56.690Z,60.60
2019-02-17T17:28:25.773Z,60.28
2019-02-17T17:30:53.140Z,61.03
2019-02-17T17:33:19.765Z,61.43
2019-02-17T17:35:46.347Z,60.71
2019-02-17T17:38:13.102Z,60.38
2019-02-17T17:40:41.884Z,60.35
2019-02-17T17:43:08.689Z,60.34
2019-02-17T17:45:35.523Z,60.20
2019-02-17T17:48:02.352Z,60.19
2019-02-17T17:50:29.054Z,61.06
2019-02-17T17:52:55.846Z,61.08
2019-02-17T17:55:22.538Z,61.87
2019-02-17T17:57:49.525Z,60.89
2019-02-17T18:00:19.750Z,60.76
2019-02-17T18:02:46.938Z,60.64
2019-02-17T18:05:13.998Z,62.13
2019-02-17T18:07:41.147Z,62.83
2019-02-17T18:10:11.884Z,63.24
2019-02-17T18:12:38.514Z,63.64
2019-02-17T18:15:09.748Z,63.35
2019-02-17T18:17:37.011Z,63.44
2019-02-17T18:20:10.188Z,63.13
2019-02-17T18:22:37.282Z,62.59
2019-02-17T18:25:06.131Z,63.48
2019-02-17T18:27:36.306Z,63.86
2019-02-17T18:30:10.295Z,63.93
2019-02-17T18:32:37.191Z,64.39
2019-02-17T18:35:05.573Z,63.32
2019-02-17T18:37:32.907Z,63.84
2019-02-17T18:39:59.576Z,63.08
2019-02-17T18:42:27.324Z,63.43
2019-02-17T18:44:54.330Z,63.23
2019-02-17T18:47:30.328Z,63.28
2019-02-17T18:49:58.132Z,64.25
2019-02-17T18:52:24.789Z,64.17
2019-02-17T18:54:52.908Z,63.96
2019-02-17T18:57:19.701Z,63.31
2019-02-17T18:59:47.617Z,63.06
2019-02-17T19:02:14.657Z,62.64
2019-02-17T19:04:42.108Z,63.06
2019-02-17T19:07:09.094Z,62.53
2019-02-17T19:09:39.162Z,64.63
2019-02-17T19:12:07.374Z,65.42
2019-02-17T19:14:34.418Z,65.55
2019-02-17T19:17:01.059Z,64.43
2019-02-17T19:19:27.661Z,64.46
2019-02-17T19:21:55.094Z,65.11
2019-02-17T19:24:23.981Z,65.12
2019-02-17T19:26:50.561Z,65.48
2019-02-17T19:29:17.291Z,66.17
2019-02-17T19:31:46.524Z,67.50
2019-02-17T19:34:13.184Z,66.18
2019-02-17T19:36:40.119Z,66.59
2019-02-17T19:39:06.935Z,66.46
2019-02-17T19:41:34.767Z,66.00
2019-02-17T19:44:01.385Z,66.40
2019-02-17T19:46:28.189Z,66.21
2019-02-17T19:48:55.322Z,66.69
2019-02-17T19:51:22.426Z,67.03
2019-02-17T19:53:49.365Z,66.67
2019-02-17T19:56:16.723Z,67.21
2019-02-17T19:58:43.842Z,66.94
2019-02-17T20:02:07.073Z,67.05
2019-02-17T20:04:35.626Z,66.59
2019-02-17T20:07:02.602Z,66.81
2019-02-17T20:09:29.512Z,67.23
2019-02-17T20:11:56.266Z,67.18
2019-02-17T20:14:23.430Z,67.35
2019-02-17T20:16:50.427Z,67.69
2019-02-17T20:19:17.092Z,67.74
2019-02-17T20:21:44.107Z,67.62
2019-02-17T20:24:11.169Z,67.42
2019-02-17T20:26:38.289Z,67.27
2019-02-17T20:29:05.119Z,68.89
2019-02-17T20:31:32.076Z,69.62
2019-02-17T20:33:58.868Z,70.05
2019-02-17T20:36:27.033Z,69.40
2019-02-17T20:38:54.058Z,69.73
2019-02-17T20:41:20.881Z,69.16
2019-02-17T20:43:48.025Z,69.04
2019-02-17T20:46:16.403Z,69.36
2019-02-17T20:48:42.992Z,69.83
2019-02-17T20:51:09.631Z,70.04
2019-02-17T20:54:34.417Z,69.65
2019-02-17T20:57:01.037Z,69.55
2019-02-17T20:59:28.017Z,69.79
2019-02-17T21:01:54.703Z,71.00
2019-02-17T21:04:21.650Z,71.39
2019-02-17T21:06:48.430Z,71.09
2019-02-17T21:09:15.319Z,71.24
2019-02-17T21:11:42.243Z,70.90
2019-02-17T21:14:09.153Z,70.73
2019-02-17T21:16:35.877Z,70.38
2019-02-17T21:19:02.868Z,70.37
2019-02-17T21:22:25.920Z,69.64
2019-02-17T21:24:52.784Z,70.18
2019-02-17T21:27:19.559Z,70.34
2019-02-17T21:29:46.269Z,70.29
2019-02-17T21:32:13.828Z,70.21
2019-02-17T21:34:40.809Z,70.13
2019-02-17T21:37:08.486Z,70.13
2019-02-17T21:39:35.057Z,70.27
2019-02-17T21:42:02.887Z,70.38
2019-02-17T21:44:29.533Z,69.94
2019-02-17T21:46:56.581Z,69.64
2019-02-17T21:49:23.154Z,69.79
2019-02-17T21:51:51.780Z,70.27
2019-02-17T21:54:19.748Z,70.20
2019-02-17T21:56:46.697Z,70.59
2019-02-17T21:59:14.103Z,70.34
2019-02-17T22:01:41.038Z,70.59
2019-02-17T22:04:07.599Z,70.63
2019-02-17T22:06:34.339Z,70.48
2019-02-17T22:09:01.530Z,70.91
2019-02-17T22:11:30.689Z,70.35
2019-02-17T22:13:57.363Z,70.06
2019-02-17T22:16:25.462Z,70.02
2019-02-17T22:18:53.795Z,70.73
2019-02-17T22:21:20.617Z,70.97
2019-02-17T22:23:47.388Z,71.39
2019-02-17T22:26:14.530Z,70.80
2019-02-17T22:28:45.030Z,70.59
2019-02-17T22:31:11.848Z,70.80
2019-02-17T22:33:38.699Z,70.66
2019-02-17T22:36:05.599Z,70.48
2019-02-17T22:38:32.308Z,70.79
2019-02-17T22:40:58.996Z,71.29
2019-02-17T22:43:27.923Z,70.90
2019-02-17T22:45:54.237Z,71.39
2019-02-17T22:48:21.022Z,71.89
2019-02-17T22:50:48.328Z,71.76
2019-02-17T22:53:15.177Z,72.70
2019-02-17T22:55:44.903Z,73.61
2019-02-17T22:58:12.054Z,72.95
2019-02-17T23:00:40.922Z,73.67
2019-02-17T23:03:08.250Z,73.33
2019-02-17T23:05:35.957Z,72.37
2019-02-17T23:08:02.922Z,72.25
2019-02-17T23:10:29.860Z,71.65
2019-02-17T23:12:57.790Z,71.89
2019-02-17T23:15:24.566Z,71.67
2019-02-17T23:17:51.349Z,71.75
2019-02-17T23:20:17.951Z,71.85
2019-02-17T23:22:44.601Z,71.68
2019-02-17T23:25:11.318Z,72.01
2019-02-17T23:27:38.070Z,72.32
2019-02-17T23:30:08.624Z,71.97
2019-02-17T23:32:35.404Z,72.20
2019-02-17T23:35:02.862Z,71.76
2019-02-17T23:37:29.519Z,71.92
2019-02-17T23:39:56.083Z,71.58
2019-02-17T23:42:22.982Z,71.51
2019-02-17T23:44:49.707Z,71.71
2019-02-17T23:47:16.277Z,72.33
2019-02-17T23:49:42.955Z,72.84
2019-02-17T23:53:05.889Z,73.10
2019-02-17T23:55:32.738Z,73.17
2019-02-17T23:58:01.226Z,72.63
